createdAt,value
2023-02-19T00:01:15.976Z,16.10
2023-02-19T00:03:52.155Z,10.63
2023-02-19T00:06:20.744Z,16.30
2023-02-19T00:08:48.126Z,12.77
2023-02-19T00:11:20.332Z,11.77
2023-02-19T00:13:49.739Z,13.37
2023-02-19T00:16:22.877Z,11.67
2023-02-19T00:18:49.959Z,12.33
2023-02-19T00:21:18.004Z,12.83
2023-02-19T00:23:49.579Z,9.57
2023-02-19T00:26:18.810Z,12.30
2023-02-19T00:28:49.855Z,11.53
2023-02-19T00:31:35.513Z,14.97
2023-02-19T00:34:05.622Z,11.63
2023-02-19T00:36:36.393Z,11.70
2023-02-19T00:39:04.089Z,10.07
2023-02-19T00:41:31.357Z,11.23
2023-02-19T00:44:00.495Z,13.60
2023-02-19T00:46:39.589Z,12.00
2023-02-19T00:49:08.132Z,15.20
2023-02-19T00:51:37.441Z,9.87
2023-02-19T00:54:05.783Z,14.93
2023-02-19T00:56:33.753Z,17.10
2023-02-19T00:59:01.039Z,14.43
2023-02-19T01:01:28.180Z,10.33
2023-02-19T01:03:55.064Z,10.67
2023-02-19T01:06:22.506Z,14.63
2023-02-19T01:08:49.611Z,10.73
2023-02-19T01:11:17.708Z,14.40
2023-02-19T01:13:44.612Z,13.53
2023-02-19T01:16:13.487Z,13.50
2023-02-19T01:18:41.031Z,9.83
2023-02-19T01:21:10.420Z,21.33
2023-02-19T01:23:37.458Z,11.80
2023-02-19T01:26:11.673Z,10.97
2023-02-19T01:28:38.479Z,13.03
2023-02-19T01:31:07.845Z,19.00
2023-02-19T01:33:35.238Z,11.83
2023-02-19T01:36:07.200Z,14.47
2023-02-19T01:38:34.050Z,11.00
2023-02-19T01:41:04.776Z,13.83
2023-02-19T01:43:36.069Z,13.97
2023-02-19T01:46:03.126Z,13.63
2023-02-19T01:48:34.248Z,14.00
2023-02-19T01:51:13.724Z,13.33
2023-02-19T01:53:45.884Z,17.83
2023-02-19T01:56:16.593Z,11.33
2023-02-19T01:58:44.714Z,16.40
2023-02-19T02:01:14.799Z,19.33
2023-02-19T02:03:43.549Z,12.60
2023-02-19T02:06:24.003Z,14.57
2023-02-19T02:09:13.831Z,18.87
2023-02-19T02:11:47.158Z,13.13
2023-02-19T02:14:18.006Z,17.83
2023-02-19T02:16:51.827Z,12.93
2023-02-19T02:19:36.642Z,16.50
2023-02-19T02:22:15.722Z,20.07
2023-02-19T02:25:02.571Z,20.13
2023-02-19T02:27:39.290Z,16.37
2023-02-19T02:30:31.832Z,11.43
2023-02-19T02:33:14.337Z,14.07
2023-02-19T02:36:14.784Z,16.83
2023-02-19T02:38:46.299Z,16.53
2023-02-19T02:41:15.250Z,17.97
2023-02-19T02:43:42.486Z,18.30
2023-02-19T02:46:11.941Z,16.30
2023-02-19T02:48:54.058Z,12.23
2023-02-19T02:51:33.709Z,12.30
2023-02-19T02:54:39.055Z,14.10
2023-02-19T02:57:14.812Z,16.17
2023-02-19T03:00:02.593Z,11.97
2023-02-19T03:02:31.381Z,11.20
2023-02-19T03:05:25.935Z,11.63
2023-02-19T03:07:58.186Z,11.53
2023-02-19T03:10:35.866Z,19.67
2023-02-19T03:13:25.550Z,12.93
2023-02-19T03:16:19.087Z,13.03
2023-02-19T03:19:08.443Z,15.13
2023-02-19T03:21:39.537Z,10.77
2023-02-19T03:24:29.808Z,16.40
2023-02-19T03:26:59.972Z,13.13
2023-02-19T03:29:33.038Z,13.30
2023-02-19T03:32:08.972Z,16.60
2023-02-19T03:34:41.671Z,19.10
2023-02-19T03:37:25.169Z,14.77
2023-02-19T03:39:54.298Z,24.07
2023-02-19T03:42:27.062Z,12.53
2023-02-19T03:45:03.488Z,13.90
2023-02-19T03:48:06.901Z,18.07
2023-02-19T03:50:48.215Z,13.53
2023-02-19T03:53:37.943Z,16.20
2023-02-19T03:56:20.110Z,12.80
2023-02-19T03:59:02.247Z,15.00
2023-02-19T04:01:41.638Z,17.77
2023-02-19T04:04:36.469Z,18.73
2023-02-19T04:07:04.576Z,14.00
2023-02-19T04:09:43.567Z,15.40
2023-02-19T04:12:16.441Z,11.33
2023-02-19T04:14:52.898Z,15.73
2023-02-19T04:17:26.973Z,16.13
2023-02-19T04:19:56.307Z,16.20
2023-02-19T04:22:23.446Z,15.77
2023-02-19T04:24:53.215Z,15.93
2023-02-19T04:27:20.281Z,11.77
2023-02-19T04:29:47.626Z,9.73
2023-02-19T04:32:14.846Z,11.73
2023-02-19T04:34:41.914Z,12.73
2023-02-19T04:37:08.974Z,18.27
2023-02-19T04:39:35.933Z,9.23
2023-02-19T04:42:03.102Z,17.97
2023-02-19T04:44:30.136Z,15.10
2023-02-19T04:46:56.892Z,18.50
2023-02-19T04:49:23.913Z,20.27
2023-02-19T04:51:50.659Z,18.77
2023-02-19T04:54:17.751Z,19.47
2023-02-19T04:56:44.486Z,17.43
2023-02-19T04:59:11.502Z,19.53
2023-02-19T05:01:38.188Z,16.00
2023-02-19T05:04:05.331Z,18.57
2023-02-19T05:06:32.127Z,20.37
2023-02-19T05:08:59.216Z,17.60
2023-02-19T05:11:25.978Z,18.03
2023-02-19T05:13:53.000Z,15.70
2023-02-19T05:16:19.760Z,18.17
2023-02-19T05:18:47.416Z,15.97
2023-02-19T05:21:15.031Z,11.53
2023-02-19T05:23:42.615Z,14.57
2023-02-19T05:26:14.202Z,12.73
2023-02-19T05:28:41.299Z,15.40
2023-02-19T05:31:09.792Z,16.23
2023-02-19T05:33:38.124Z,18.67
2023-02-19T05:36:08.511Z,11.43
2023-02-19T05:38:36.317Z,12.03
2023-02-19T05:41:18.196Z,12.90
2023-02-19T05:43:47.711Z,13.13
2023-02-19T05:46:16.744Z,20.43
2023-02-19T05:48:44.036Z,13.50
2023-02-19T05:51:13.006Z,18.93
2023-02-19T05:53:40.897Z,22.90
2023-02-19T05:56:26.030Z,17.33
2023-02-19T05:58:54.459Z,17.27
2023-02-19T06:01:22.849Z,20.13
2023-02-19T06:03:49.993Z,19.20
2023-02-19T06:06:20.904Z,18.40
2023-02-19T06:08:50.294Z,18.67
2023-02-19T06:11:18.345Z,14.30
2023-02-19T06:13:46.447Z,15.97
2023-02-19T06:16:13.319Z,21.90
2023-02-19T06:18:41.317Z,15.07
2023-02-19T06:21:11.220Z,19.47
2023-02-19T06:23:39.676Z,17.23
2023-02-19T06:26:22.072Z,14.53
2023-02-19T06:28:51.113Z,18.27
2023-02-19T06:31:20.065Z,14.67
2023-02-19T06:33:47.292Z,18.23
2023-02-19T06:36:17.004Z,14.90
2023-02-19T06:38:44.635Z,11.23
2023-02-19T06:41:12.238Z,17.07
2023-02-19T06:43:39.919Z,16.53
2023-02-19T06:46:08.154Z,20.93
2023-02-19T06:48:35.680Z,18.67
2023-02-19T06:51:02.748Z,18.33
2023-02-19T06:53:30.193Z,20.27
2023-02-19T06:56:03.815Z,24.87
2023-02-19T06:58:31.922Z,16.77
2023-02-19T07:00:59.248Z,18.37
2023-02-19T07:03:26.566Z,18.87
2023-02-19T07:05:53.794Z,24.67
2023-02-19T07:08:21.100Z,23.73
2023-02-19T07:10:56.450Z,23.23
2023-02-19T07:13:25.111Z,24.90
2023-02-19T07:15:52.386Z,34.90
2023-02-19T07:18:19.512Z,27.57
2023-02-19T07:20:46.281Z,26.63
2023-02-19T07:23:13.251Z,33.73
2023-02-19T07:25:40.203Z,29.13
2023-02-19T07:28:07.343Z,22.53
2023-02-19T07:30:34.267Z,19.20
2023-02-19T07:33:01.405Z,26.20
2023-02-19T07:35:28.363Z,18.90
2023-02-19T07:37:55.449Z,21.47
2023-02-19T07:40:22.200Z,26.53
2023-02-19T07:42:49.308Z,23.20
2023-02-19T07:45:16.975Z,17.80
2023-02-19T07:47:43.999Z,25.73
2023-02-19T07:50:13.011Z,27.67
2023-02-19T07:52:40.876Z,30.37
2023-02-19T07:55:07.657Z,22.83
2023-02-19T07:57:34.757Z,22.67
2023-02-19T08:00:01.795Z,25.90
2023-02-19T08:02:47.439Z,23.40
2023-02-19T08:05:14.234Z,26.87
2023-02-19T08:07:41.212Z,31.87
2023-02-19T08:10:26.612Z,27.00
2023-02-19T08:13:19.422Z,22.97
2023-02-19T08:15:47.153Z,25.63
2023-02-19T08:18:16.433Z,19.93
2023-02-19T08:20:44.219Z,26.27
2023-02-19T08:23:12.085Z,22.27
2023-02-19T08:25:40.012Z,24.40
2023-02-19T08:28:08.610Z,20.33
2023-02-19T08:30:38.143Z,17.97
2023-02-19T08:33:07.017Z,23.60
2023-02-19T08:35:36.761Z,19.43
2023-02-19T08:38:05.165Z,17.57
2023-02-19T08:40:33.098Z,19.73
2023-02-19T08:43:05.859Z,21.23
2023-02-19T08:45:33.041Z,17.73
2023-02-19T08:48:00.452Z,21.60
2023-02-19T08:50:27.364Z,21.93
2023-02-19T08:52:54.495Z,23.20
2023-02-19T08:55:21.346Z,18.93
2023-02-19T08:57:50.553Z,21.43
2023-02-19T09:00:17.922Z,24.67
2023-02-19T09:02:44.943Z,31.87
2023-02-19T09:05:12.235Z,23.43
2023-02-19T09:07:39.723Z,26.00
2023-02-19T09:10:07.572Z,18.07
2023-02-19T09:12:34.562Z,19.37
2023-02-19T09:15:01.351Z,20.63
2023-02-19T09:17:28.359Z,19.57
2023-02-19T09:19:55.157Z,17.93
2023-02-19T09:22:22.215Z,18.87
2023-02-19T09:24:48.942Z,16.43
2023-02-19T09:27:18.266Z,16.30
2023-02-19T09:29:45.574Z,16.37
2023-02-19T09:32:13.840Z,13.50
2023-02-19T09:34:40.993Z,12.83
2023-02-19T09:37:08.626Z,17.60
2023-02-19T09:39:35.884Z,25.77
2023-02-19T09:42:24.693Z,15.80
2023-02-19T09:44:55.237Z,9.13
2023-02-19T09:47:25.430Z,12.90
2023-02-19T09:50:16.485Z,11.83
2023-02-19T09:52:49.775Z,17.23
2023-02-19T09:55:25.505Z,17.70
2023-02-19T09:57:53.405Z,11.90
2023-02-19T10:00:26.134Z,11.53
2023-02-19T10:02:57.977Z,14.90
2023-02-19T10:05:26.287Z,12.90
2023-02-19T10:07:55.438Z,12.77
2023-02-19T10:10:32.864Z,13.33
2023-02-19T10:13:09.935Z,14.37
2023-02-19T10:15:43.791Z,13.17
2023-02-19T10:18:11.322Z,13.57
2023-02-19T10:20:38.858Z,10.43
2023-02-19T10:23:08.876Z,11.43
2023-02-19T10:25:39.195Z,10.67
2023-02-19T10:28:11.716Z,11.77
2023-02-19T10:30:38.824Z,13.97
2023-02-19T10:33:09.986Z,13.47
2023-02-19T10:35:52.525Z,12.70
2023-02-19T10:38:21.242Z,10.23
2023-02-19T10:40:48.735Z,12.47
2023-02-19T10:43:31.127Z,13.27
2023-02-19T10:45:59.724Z,11.33
2023-02-19T10:48:40.756Z,11.97
2023-02-19T10:51:11.212Z,9.87
2023-02-19T10:53:46.717Z,12.50
2023-02-19T10:56:24.763Z,9.07
2023-02-19T10:58:52.037Z,11.10
2023-02-19T11:01:27.118Z,10.50
2023-02-19T11:04:18.026Z,7.83
2023-02-19T11:06:46.888Z,17.63
2023-02-19T11:09:22.543Z,10.37
2023-02-19T11:11:53.307Z,11.07
2023-02-19T11:14:24.119Z,8.77
2023-02-19T11:16:55.034Z,7.10
2023-02-19T11:19:43.871Z,11.30
2023-02-19T11:22:29.997Z,11.27
2023-02-19T11:25:07.164Z,12.63
2023-02-19T11:27:34.292Z,11.27
2023-02-19T11:30:30.349Z,12.17
2023-02-19T11:33:22.449Z,8.77
2023-02-19T11:35:52.201Z,11.53
2023-02-19T11:38:21.559Z,10.67
2023-02-19T11:41:14.071Z,9.20
2023-02-19T11:43:44.165Z,12.70
2023-02-19T11:46:44.030Z,10.87
2023-02-19T11:49:35.682Z,5.20
2023-02-19T11:52:20.102Z,8.37
2023-02-19T11:54:52.171Z,7.37
2023-02-19T11:57:24.373Z,9.00
2023-02-19T12:00:20.242Z,13.90
2023-02-19T12:03:14.953Z,9.47
2023-02-19T12:06:06.322Z,12.27
2023-02-19T12:08:44.966Z,9.15
2023-02-19T12:11:21.614Z,10.13
2023-02-19T12:14:16.681Z,11.83
2023-02-19T12:17:24.783Z,6.67
2023-02-19T12:20:15.990Z,8.52
2023-02-19T12:23:10.121Z,12.57
2023-02-19T12:25:48.849Z,7.75
2023-02-19T12:28:26.091Z,8.73
2023-02-19T12:31:11.251Z,8.70
2023-02-19T12:34:22.590Z,11.07
2023-02-19T12:37:10.698Z,8.90
2023-02-19T12:39:46.506Z,7.40
2023-02-19T12:42:28.550Z,9.35
2023-02-19T12:45:06.615Z,11.45
2023-02-19T12:47:40.043Z,6.88
2023-02-19T12:50:12.832Z,9.57
2023-02-19T12:52:43.070Z,13.47
2023-02-19T12:55:24.404Z,8.40
2023-02-19T12:57:51.717Z,11.13
2023-02-19T13:00:39.394Z,12.30
2023-02-19T13:03:21.021Z,8.57
2023-02-19T13:05:55.740Z,6.85
2023-02-19T13:08:34.783Z,4.27
2023-02-19T13:11:28.065Z,3.97
2023-02-19T13:14:00.117Z,5.47
2023-02-19T13:16:33.159Z,7.20
2023-02-19T13:19:02.265Z,9.60
2023-02-19T13:21:51.768Z,5.47
2023-02-19T13:24:33.734Z,3.57
2023-02-19T13:27:03.770Z,8.70
2023-02-19T13:29:53.350Z,5.67
2023-02-19T13:32:42.146Z,3.77
2023-02-19T13:35:55.404Z,5.43
2023-02-19T13:38:23.176Z,9.57
2023-02-19T13:40:59.002Z,9.50
2023-02-19T13:43:39.094Z,14.33
2023-02-19T13:46:09.650Z,10.60
2023-02-19T13:48:41.876Z,5.43
2023-02-19T13:51:23.683Z,5.60
2023-02-19T13:53:59.488Z,8.23
2023-02-19T13:56:33.962Z,7.43
2023-02-19T13:59:35.079Z,8.90
2023-02-19T14:02:02.232Z,8.67
2023-02-19T14:04:32.375Z,9.77
2023-02-19T14:07:05.224Z,11.40
2023-02-19T14:09:39.924Z,10.97
2023-02-19T14:12:15.086Z,7.00
2023-02-19T14:14:47.638Z,6.50
2023-02-19T14:17:35.667Z,9.17
2023-02-19T14:20:09.652Z,5.83
2023-02-19T14:22:46.068Z,7.23
2023-02-19T14:25:31.464Z,10.27
2023-02-19T14:28:10.138Z,10.67
2023-02-19T14:31:10.643Z,8.53
2023-02-19T14:33:43.181Z,7.97
2023-02-19T14:36:19.204Z,9.70
2023-02-19T14:38:51.128Z,8.67
2023-02-19T14:41:20.281Z,5.87
2023-02-19T14:43:50.218Z,5.87
2023-02-19T14:46:37.217Z,8.20
2023-02-19T14:49:14.099Z,4.83
2023-02-19T14:51:44.950Z,4.57
2023-02-19T14:54:20.211Z,6.43
2023-02-19T14:56:52.747Z,5.73
2023-02-19T14:59:19.474Z,4.67
2023-02-19T15:01:53.066Z,7.57
2023-02-19T15:04:28.163Z,2.77
2023-02-19T15:06:57.050Z,6.67
2023-02-19T15:09:31.072Z,7.87
2023-02-19T15:11:59.289Z,6.23
2023-02-19T15:14:28.662Z,8.40
2023-02-19T15:17:02.365Z,11.37
2023-02-19T15:19:34.985Z,12.53
2023-02-19T15:22:02.662Z,9.40
2023-02-19T15:24:29.873Z,7.63
2023-02-19T15:26:57.293Z,7.80
2023-02-19T15:29:26.273Z,11.20
2023-02-19T15:31:59.736Z,8.90
2023-02-19T15:34:29.061Z,11.87
2023-02-19T15:36:59.828Z,5.93
2023-02-19T15:39:34.523Z,7.83
2023-02-19T15:42:05.377Z,6.73
2023-02-19T15:44:41.156Z,4.53
2023-02-19T15:47:29.751Z,8.77
2023-02-19T15:50:23.797Z,8.70
2023-02-19T15:52:59.331Z,9.73
2023-02-19T15:55:47.948Z,14.10
2023-02-19T15:58:45.646Z,15.87
2023-02-19T16:01:20.377Z,19.70
2023-02-19T16:03:48.295Z,13.93
2023-02-19T16:06:16.925Z,16.70
2023-02-19T16:09:03.612Z,15.93
2023-02-19T16:11:54.345Z,17.30
2023-02-19T16:14:24.482Z,12.83
2023-02-19T16:16:55.553Z,21.43
2023-02-19T16:19:29.384Z,13.47
2023-02-19T16:21:57.246Z,9.60
2023-02-19T16:24:35.566Z,10.70
2023-02-19T16:27:03.857Z,11.57
2023-02-19T16:29:33.415Z,8.77
2023-02-19T16:32:06.671Z,11.73
2023-02-19T16:34:43.201Z,8.17
2023-02-19T16:37:55.096Z,13.10
2023-02-19T16:40:25.198Z,11.77
2023-02-19T16:42:52.012Z,11.50
2023-02-19T16:45:19.386Z,11.93
2023-02-19T16:47:51.156Z,9.10
2023-02-19T16:50:26.893Z,9.53
2023-02-19T16:52:59.145Z,12.47
2023-02-19T16:55:27.599Z,11.20
2023-02-19T16:57:54.592Z,16.87
2023-02-19T17:00:23.191Z,18.63
2023-02-19T17:02:56.293Z,24.33
2023-02-19T17:05:25.991Z,16.40
2023-02-19T17:07:53.433Z,14.07
2023-02-19T17:10:26.150Z,16.37
2023-02-19T17:12:54.742Z,17.33
2023-02-19T17:15:22.578Z,14.77
2023-02-19T17:17:49.569Z,16.37
2023-02-19T17:20:25.313Z,24.73
2023-02-19T17:22:52.080Z,23.63
2023-02-19T17:25:19.175Z,23.77
2023-02-19T17:27:46.016Z,24.60
2023-02-19T17:30:25.397Z,29.77
2023-02-19T17:32:52.328Z,19.63
2023-02-19T17:35:19.306Z,28.23
2023-02-19T17:37:46.138Z,21.97
2023-02-19T17:40:33.384Z,24.23
2023-02-19T17:43:01.859Z,20.87
2023-02-19T17:45:29.249Z,19.20
2023-02-19T17:47:56.088Z,23.63
2023-02-19T17:50:26.511Z,18.87
2023-02-19T17:52:53.281Z,16.77
2023-02-19T17:55:20.464Z,15.70
2023-02-19T17:57:48.887Z,15.67
2023-02-19T18:00:17.779Z,22.90
2023-02-19T18:02:44.574Z,34.73
2023-02-19T18:05:11.879Z,42.43
2023-02-19T18:07:39.169Z,48.30
2023-02-19T18:10:07.529Z,40.00
2023-02-19T18:12:34.361Z,41.30
2023-02-19T18:15:01.518Z,31.27
2023-02-19T18:17:28.379Z,37.37
2023-02-19T18:19:55.540Z,38.33
2023-02-19T18:22:22.284Z,31.43
2023-02-19T18:24:51.286Z,36.73
2023-02-19T18:27:20.270Z,42.07
2023-02-19T18:29:55.490Z,29.53
2023-02-19T18:32:24.575Z,32.13
2023-02-19T18:34:54.214Z,26.27
2023-02-19T18:37:21.867Z,24.47
2023-02-19T18:39:49.046Z,25.03
2023-02-19T18:42:16.256Z,23.73
2023-02-19T18:44:43.795Z,21.17
2023-02-19T18:47:11.532Z,27.17
2023-02-19T18:49:38.696Z,21.53
2023-02-19T18:52:06.653Z,27.00
2023-02-19T18:54:33.742Z,24.00
2023-02-19T18:57:04.497Z,20.15
2023-02-19T18:59:32.411Z,14.33
2023-02-19T19:01:59.244Z,18.23
2023-02-19T19:04:26.273Z,19.87
2023-02-19T19:06:53.016Z,15.07
2023-02-19T19:09:20.069Z,23.87
2023-02-19T19:11:46.942Z,31.47
2023-02-19T19:14:14.107Z,39.83
2023-02-19T19:16:42.181Z,58.47
2023-02-19T19:19:09.484Z,46.10
2023-02-19T19:21:36.387Z,50.10
2023-02-19T19:24:03.944Z,43.13
2023-02-19T19:26:30.794Z,22.30
2023-02-19T19:28:58.294Z,14.13
2023-02-19T19:31:25.585Z,15.43
2023-02-19T19:33:52.726Z,12.57
2023-02-19T19:36:21.708Z,10.97
2023-02-19T19:38:49.117Z,14.40
2023-02-19T19:41:17.223Z,14.03
2023-02-19T19:43:44.611Z,11.20
2023-02-19T19:46:11.651Z,14.53
2023-02-19T19:48:39.642Z,11.10
2023-02-19T19:51:07.998Z,12.30
2023-02-19T19:53:35.157Z,14.13
2023-02-19T19:56:02.847Z,12.80
2023-02-19T19:58:30.277Z,14.63
2023-02-19T20:00:57.021Z,12.90
2023-02-19T20:03:24.119Z,12.70
2023-02-19T20:05:51.311Z,9.60
2023-02-19T20:08:18.766Z,10.87
2023-02-19T20:10:45.780Z,10.03
2023-02-19T20:13:17.100Z,15.50
2023-02-19T20:15:44.097Z,11.27
2023-02-19T20:18:11.391Z,12.03
2023-02-19T20:20:38.733Z,14.07
2023-02-19T20:23:05.809Z,11.97
2023-02-19T20:25:32.653Z,17.10
2023-02-19T20:27:59.697Z,12.30
2023-02-19T20:30:26.504Z,14.63
2023-02-19T20:32:53.937Z,8.33
2023-02-19T20:35:21.096Z,8.80
2023-02-19T20:37:49.435Z,15.47
2023-02-19T20:40:18.175Z,8.73
2023-02-19T20:42:45.216Z,14.90
2023-02-19T20:45:12.182Z,13.27
2023-02-19T20:47:39.815Z,22.67
2023-02-19T20:50:07.779Z,19.40
2023-02-19T20:52:34.924Z,18.10
2023-02-19T20:55:02.236Z,18.87
2023-02-19T20:57:29.456Z,13.30
2023-02-19T20:59:56.221Z,21.37
2023-02-19T21:02:29.081Z,15.13
2023-02-19T21:04:57.198Z,12.20
2023-02-19T21:07:25.202Z,16.00
2023-02-19T21:09:52.573Z,13.23
2023-02-19T21:12:21.404Z,13.53
2023-02-19T21:14:48.261Z,15.43
2023-02-19T21:17:15.468Z,12.93
2023-02-19T21:19:42.265Z,17.13
2023-02-19T21:22:09.589Z,15.60
2023-02-19T21:24:36.725Z,13.67
2023-02-19T21:27:03.987Z,10.23
2023-02-19T21:29:30.773Z,9.83
2023-02-19T21:31:58.703Z,12.83
2023-02-19T21:34:28.242Z,8.30
2023-02-19T21:36:56.276Z,11.53
2023-02-19T21:39:24.620Z,13.50
2023-02-19T21:41:51.926Z,15.20
2023-02-19T21:44:20.999Z,12.10
2023-02-19T21:46:48.903Z,11.43
2023-02-19T21:49:15.950Z,10.67
2023-02-19T21:51:47.820Z,11.20
2023-02-19T21:54:18.132Z,12.03
2023-02-19T21:56:45.234Z,14.43
2023-02-19T21:59:12.535Z,11.57
2023-02-19T22:01:39.636Z,12.50
2023-02-19T22:04:07.275Z,10.10
2023-02-19T22:06:34.880Z,8.37
2023-02-19T22:09:02.326Z,14.43
2023-02-19T22:11:29.366Z,12.90
2023-02-19T22:13:56.114Z,8.47
2023-02-19T22:16:23.738Z,12.17
2023-02-19T22:18:55.737Z,10.07
2023-02-19T22:21:25.436Z,9.37
2023-02-19T22:23:53.740Z,11.63
2023-02-19T22:26:23.284Z,12.63
2023-02-19T22:28:50.551Z,14.60
2023-02-19T22:31:20.653Z,12.37
2023-02-19T22:33:47.546Z,10.23
2023-02-19T22:36:18.425Z,12.13
2023-02-19T22:38:45.644Z,14.10
2023-02-19T22:41:13.435Z,11.30
2023-02-19T22:43:40.350Z,10.03
2023-02-19T22:46:27.979Z,10.73
2023-02-19T22:48:54.830Z,12.50
2023-02-19T22:51:23.642Z,7.93
2023-02-19T22:53:56.329Z,8.20
2023-02-19T22:56:26.817Z,9.97
2023-02-19T22:58:55.156Z,11.97
2023-02-19T23:01:22.938Z,10.77
2023-02-19T23:03:57.277Z,13.87
2023-02-19T23:06:30.472Z,12.27
2023-02-19T23:08:59.357Z,11.57
2023-02-19T23:11:32.494Z,9.60
2023-02-19T23:13:59.640Z,6.87
2023-02-19T23:16:27.166Z,8.10
2023-02-19T23:18:54.628Z,9.50
2023-02-19T23:21:22.661Z,12.23
2023-02-19T23:23:49.579Z,8.90
2023-02-19T23:26:17.051Z,7.83
2023-02-19T23:28:44.449Z,8.97
2023-02-19T23:31:12.587Z,8.57
2023-02-19T23:33:39.602Z,10.10
2023-02-19T23:36:07.452Z,7.17
2023-02-19T23:38:34.463Z,9.67
2023-02-19T23:41:01.611Z,9.47
2023-02-19T23:43:28.467Z,9.70
2023-02-19T23:45:55.610Z,7.30
2023-02-19T23:48:22.426Z,10.20
2023-02-19T23:50:49.416Z,6.97
2023-02-19T23:53:16.108Z,11.63
2023-02-19T23:55:43.167Z,8.87
2023-02-19T23:58:09.950Z,14.37
